This is the latest recevied weather packets stored in our database for station/object F5SZR-10. If no packets are shown the sender has not sent any weather packets the latest 10 day(s).
| Time | Temp. | Humidity | Pressure | Rain* | Wind** | Luminosity | Snow |
|---|---|---|---|---|---|---|---|
| 1788162958 | 86° F | 48% | 776.7 mmHg | - | - | - | - |
| 1788162058 | 86° F | 50% | 776.5 mmHg | - | - | - | - |
| 1788161158 | 85° F | 51% | 776.5 mmHg | - | - | - | - |
| 1788160258 | 83° F | 54% | 776.4 mmHg | - | - | - | - |
| 1788159357 | 75° F | 63% | 776.4 mmHg | - | - | - | - |
| 1788093469 | 89° F | 45% | 771.7 mmHg | - | - | - | - |
| 1788092569 | 89° F | 45% | 771.7 mmHg | - | - | - | - |
| 1788091669 | 89° F | 45% | 771.8 mmHg | - | - | - | - |
| 1788090769 | 88° F | 45% | 771.9 mmHg | - | - | - | - |
| 1788089869 | 88° F | 45% | 771.8 mmHg | - | - | - | - |
| 1788088968 | 88° F | 45% | 771.9 mmHg | - | - | - | - |
| 1788088068 | 88° F | 45% | 772 mmHg | - | - | - | - |
| 1788087168 | 87° F | 46% | 772.1 mmHg | - | - | - | - |
| 1788086268 | 87° F | 47% | 772.2 mmHg | - | - | - | - |
| 1788085368 | 87° F | 46% | 772.4 mmHg | - | - | - | - |
| 1788084468 | 87° F | 46% | 772.3 mmHg | - | - | - | - |
| 1788083568 | 87° F | 47% | 772.6 mmHg | - | - | - | - |
| 1788082668 | 87° F | 46% | 772.7 mmHg | - | - | - | - |
| 1788081768 | 87° F | 46% | 772.7 mmHg | - | - | - | - |
| 1788080867 | 87° F | 46% | 772.9 mmHg | - | - | - | - |
| 1788079968 | 86° F | 46% | 772.9 mmHg | - | - | - | - |
| 1788079067 | 86° F | 47% | 772.9 mmHg | - | - | - | - |
| 1788078177 | 86° F | 47% | 772.9 mmHg | - | - | - | - |
| 1788077277 | 86° F | 46% | 773 mmHg | - | - | - | - |
| 1788076377 | 86° F | 47% | 773.1 mmHg | - | - | - | - |
* Rain since midnight (hover to see other rain measurements)
** Current wind speed in m/s (hover to see current wind gust speed)